DLH87 EDDF-LDDU
Flight info
| Callsign | DLH87 |
|---|---|
| Flight time | N/A |
| Altitude | 37000 |
| Route | CINDY8S/18 CINDY Z74 LAMPU DCT NOMBO Y161 MAH DCT VAVOR DCT RADIZ/N0457F390 DCT DIGOT DCT SIPAL |
| Aircraft | A333/H-SDE3GHIJ2J3J5M1RVWXY/LB2D1 |
Departure
| Time | N/A |
|---|---|
| Airport | Frankfurt Main Airport (EDDF) |
Arrival
| Time | 2026-05-03 20:29 |
|---|---|
| Airport | Dubrovnik Ruđer Bošković Airport (LDDU) |
| Time | Latitude | Longitude | Altitude | Speed | Heading |
|---|---|---|---|---|---|
| 2026-05-03 20:15 | 43.12196 | 17.10293 | 17636 ft | 396 kts | 121° |
| 2026-05-03 20:15 | 43.10657 | 17.13394 | 17059 ft | 391 kts | 120° |
| 2026-05-03 20:15 | 43.09174 | 17.16449 | 16475 ft | 389 kts | 120° |
| 2026-05-03 20:15 | 43.07662 | 17.19559 | 15865 ft | 386 kts | 120° |
| 2026-05-03 20:16 | 43.06192 | 17.22569 | 15313 ft | 384 kts | 120° |
| 2026-05-03 20:16 | 43.04709 | 17.25595 | 14712 ft | 381 kts | 120° |
| 2026-05-03 20:16 | 43.03236 | 17.28593 | 14128 ft | 378 kts | 121° |
| 2026-05-03 20:16 | 43.01772 | 17.31568 | 13500 ft | 375 kts | 121° |
| 2026-05-03 20:17 | 43.00324 | 17.34505 | 12901 ft | 370 kts | 121° |
| 2026-05-03 20:17 | 42.98887 | 17.37406 | 12336 ft | 366 kts | 121° |
| 2026-05-03 20:17 | 42.97463 | 17.40283 | 11788 ft | 363 kts | 121° |
| 2026-05-03 20:17 | 42.96073 | 17.43095 | 11466 ft | 349 kts | 121° |
| 2026-05-03 20:18 | 42.94779 | 17.45705 | 11118 ft | 325 kts | 121° |
| 2026-05-03 20:18 | 42.93547 | 17.48189 | 10735 ft | 306 kts | 120° |
| 2026-05-03 20:18 | 42.92384 | 17.50536 | 10537 ft | 296 kts | 120° |
| 2026-05-03 20:18 | 42.91229 | 17.52872 | 10424 ft | 298 kts | 121° |
| 2026-05-03 20:19 | 42.89935 | 17.55108 | 10291 ft | 301 kts | 128° |
| 2026-05-03 20:19 | 42.88499 | 17.57182 | 10159 ft | 299 kts | 131° |
| 2026-05-03 20:19 | 42.87042 | 17.59206 | 9941 ft | 299 kts | 131° |
| 2026-05-03 20:19 | 42.85580 | 17.61231 | 9415 ft | 301 kts | 131° |
| 2026-05-03 20:20 | 42.84115 | 17.63257 | 9028 ft | 299 kts | 131° |
| 2026-05-03 20:20 | 42.82666 | 17.65270 | 8616 ft | 296 kts | 132° |
| 2026-05-03 20:20 | 42.81241 | 17.67250 | 8221 ft | 295 kts | 132° |
| 2026-05-03 20:20 | 42.79811 | 17.69236 | 7841 ft | 293 kts | 132° |
| 2026-05-03 20:21 | 42.78396 | 17.71174 | 7550 ft | 281 kts | 136° |
| 2026-05-03 20:21 | 42.77164 | 17.73189 | 7103 ft | 277 kts | 124° |
| 2026-05-03 20:21 | 42.76170 | 17.75425 | 6728 ft | 275 kts | 120° |
| 2026-05-03 20:21 | 42.75557 | 17.76929 | 6586 ft | 270 kts | 119° |
| 2026-05-03 20:22 | 42.74685 | 17.79135 | 6436 ft | 260 kts | 118° |
| 2026-05-03 20:22 | 42.73850 | 17.81272 | 6287 ft | 249 kts | 118° |
| 2026-05-03 20:22 | 42.72870 | 17.84032 | 5768 ft | 244 kts | 116° |
| 2026-05-03 20:22 | 42.72376 | 17.85440 | 5490 ft | 242 kts | 117° |
| 2026-05-03 20:23 | 42.71617 | 17.87474 | 5102 ft | 241 kts | 118° |
| 2026-05-03 20:23 | 42.70826 | 17.89439 | 4990 ft | 240 kts | 120° |
| 2026-05-03 20:23 | 42.70001 | 17.91428 | 5085 ft | 241 kts | 120° |
| 2026-05-03 20:23 | 42.69184 | 17.93414 | 5092 ft | 241 kts | 120° |
| 2026-05-03 20:24 | 42.68380 | 17.95413 | 5096 ft | 240 kts | 119° |
| 2026-05-03 20:24 | 42.67622 | 17.97438 | 5007 ft | 240 kts | 115° |
| 2026-05-03 20:24 | 42.66941 | 17.99470 | 4743 ft | 232 kts | 117° |
| 2026-05-03 20:24 | 42.66169 | 18.01316 | 4370 ft | 218 kts | 116° |
| 2026-05-03 20:25 | 42.65496 | 18.03111 | 4047 ft | 209 kts | 116° |
| 2026-05-03 20:25 | 42.64822 | 18.04824 | 3745 ft | 201 kts | 118° |
| 2026-05-03 20:25 | 42.64169 | 18.06459 | 3471 ft | 193 kts | 117° |
| 2026-05-03 20:25 | 42.63555 | 18.08021 | 3212 ft | 181 kts | 117° |
| 2026-05-03 20:26 | 42.62968 | 18.09512 | 2990 ft | 177 kts | 118° |
| 2026-05-03 20:26 | 42.62396 | 18.10959 | 2763 ft | 175 kts | 117° |
| 2026-05-03 20:26 | 42.61832 | 18.12389 | 2519 ft | 167 kts | 117° |
| 2026-05-03 20:26 | 42.61304 | 18.13728 | 2327 ft | 155 kts | 117° |
| 2026-05-03 20:27 | 42.60811 | 18.14979 | 2120 ft | 148 kts | 117° |
| 2026-05-03 20:27 | 42.60319 | 18.16210 | 1974 ft | 149 kts | 115° |
| 2026-05-03 20:27 | 42.59869 | 18.17486 | 1861 ft | 150 kts | 113° |
| 2026-05-03 20:27 | 42.59378 | 18.18735 | 1670 ft | 150 kts | 117° |
| 2026-05-03 20:28 | 42.58879 | 18.19967 | 1380 ft | 147 kts | 120° |
| 2026-05-03 20:28 | 42.58387 | 18.21140 | 1209 ft | 144 kts | 118° |
| 2026-05-03 20:28 | 42.57912 | 18.22340 | 996 ft | 142 kts | 117° |
| 2026-05-03 20:28 | 42.57467 | 18.23512 | 799 ft | 140 kts | 118° |
| 2026-05-03 20:29 | 42.57000 | 18.24669 | 623 ft | 139 kts | 118° |
| 2026-05-03 20:29 | 42.56551 | 18.25775 | 535 ft | 122 kts | 120° |
| 2026-05-03 20:29 | 42.56245 | 18.26558 | 525 ft | 65 kts | 118° |
| 2026-05-03 20:29 | 42.56106 | 18.26909 | 523 ft | 34 kts | 118° |
| 2026-05-03 20:30 | 42.55991 | 18.27194 | 519 ft | 33 kts | 117° |
| 2026-05-03 20:30 | 42.55836 | 18.27335 | 516 ft | 21 kts | 179° |
| 2026-05-03 20:30 | 42.55785 | 18.27301 | 517 ft | 0 kts | 240° |
| 2026-05-03 20:31 | 42.55785 | 18.27300 | 517 ft | 0 kts | 240° |
| 2026-05-03 20:31 | 42.55787 | 18.27253 | 517 ft | 7 kts | 291° |
| 2026-05-03 20:31 | 42.55817 | 18.27155 | 518 ft | 15 kts | 295° |
| 2026-05-03 20:31 | 42.55878 | 18.26998 | 520 ft | 21 kts | 298° |
| 2026-05-03 20:32 | 42.55948 | 18.26826 | 521 ft | 12 kts | 301° |
| 2026-05-03 20:32 | 42.55974 | 18.26792 | 522 ft | 2 kts | 296° |
| 2026-05-03 20:32 | 42.55982 | 18.26760 | 522 ft | 4 kts | 293° |
| 2026-05-03 20:32 | 42.55992 | 18.26700 | 522 ft | 3 kts | 264° |
| 2026-05-03 20:33 | 42.55979 | 18.26681 | 522 ft | 5 kts | 230° |
| 2026-05-03 20:33 | 42.55948 | 18.26649 | 522 ft | 0 kts | 208° |